DAL1254 KBOS-KDCA
Flight info
| Callsign | DAL1254 |
|---|---|
| Flight time | N/A |
| Altitude | 36000 |
| Route | SSOXS7 SSOXS Q167 ZIZZI KNUKK ATR LAFLN DEALE3 |
| Aircraft | B738/M-SDE2E3FGHIRWXY/LB1 |
Departure
| Time | 2026-05-07 19:11 |
|---|---|
| Airport | Boston Logan International Airport (KBOS) |
Arrival
| Time | N/A |
|---|---|
| Airport | Ronald Reagan Washington National Airport (KDCA) |
| Time | Latitude | Longitude | Altitude | Speed | Heading |
|---|---|---|---|---|---|
| 2026-05-07 18:39 | 42.36381 | -71.02431 | 25 ft | 0 kts | 274° |
| 2026-05-07 18:59 | 42.36381 | -71.02425 | 25 ft | 2 kts | 274° |
| 2026-05-07 18:59 | 42.36379 | -71.02403 | 29 ft | 2 kts | 274° |
| 2026-05-07 19:00 | 42.36378 | -71.02381 | 28 ft | 2 kts | 274° |
| 2026-05-07 19:00 | 42.36377 | -71.02359 | 23 ft | 2 kts | 274° |
| 2026-05-07 19:00 | 42.36377 | -71.02358 | 23 ft | 0 kts | 274° |
| 2026-05-07 19:01 | 42.36377 | -71.02359 | 23 ft | 1 kts | 271° |
| 2026-05-07 19:01 | 42.36354 | -71.02383 | 26 ft | 8 kts | 180° |
| 2026-05-07 19:02 | 42.36268 | -71.02348 | 24 ft | 17 kts | 170° |
| 2026-05-07 19:02 | 42.36179 | -71.02350 | 24 ft | 5 kts | 185° |
| 2026-05-07 19:03 | 42.36172 | -71.02351 | 25 ft | 4 kts | 185° |
| 2026-05-07 19:03 | 42.36126 | -71.02348 | 27 ft | 10 kts | 161° |
| 2026-05-07 19:03 | 42.36052 | -71.02290 | 23 ft | 13 kts | 138° |
| 2026-05-07 19:03 | 42.36001 | -71.02186 | 26 ft | 13 kts | 121° |
| 2026-05-07 19:04 | 42.35954 | -71.02080 | 26 ft | 13 kts | 121° |
| 2026-05-07 19:04 | 42.35905 | -71.01969 | 27 ft | 15 kts | 121° |
| 2026-05-07 19:04 | 42.35855 | -71.01840 | 26 ft | 16 kts | 111° |
| 2026-05-07 19:04 | 42.35830 | -71.01682 | 26 ft | 17 kts | 101° |
| 2026-05-07 19:05 | 42.35859 | -71.01561 | 26 ft | 14 kts | 19° |
| 2026-05-07 19:05 | 42.35953 | -71.01517 | 25 ft | 14 kts | 20° |
| 2026-05-07 19:05 | 42.36051 | -71.01470 | 26 ft | 17 kts | 19° |
| 2026-05-07 19:05 | 42.36162 | -71.01416 | 26 ft | 17 kts | 20° |
| 2026-05-07 19:06 | 42.36271 | -71.01364 | 22 ft | 16 kts | 20° |
| 2026-05-07 19:06 | 42.36280 | -71.01187 | 28 ft | 12 kts | 119° |
| 2026-05-07 19:06 | 42.36243 | -71.01089 | 25 ft | 12 kts | 116° |
| 2026-05-07 19:07 | 42.36206 | -71.00980 | 24 ft | 14 kts | 114° |
| 2026-05-07 19:07 | 42.36164 | -71.00850 | 23 ft | 17 kts | 113° |
| 2026-05-07 19:07 | 42.36115 | -71.00683 | 23 ft | 21 kts | 110° |
| 2026-05-07 19:07 | 42.36067 | -71.00495 | 24 ft | 21 kts | 107° |
| 2026-05-07 19:08 | 42.36020 | -71.00301 | 25 ft | 22 kts | 110° |
| 2026-05-07 19:08 | 42.35963 | -71.00112 | 27 ft | 21 kts | 116° |
| 2026-05-07 19:08 | 42.35870 | -70.99962 | 28 ft | 21 kts | 135° |
| 2026-05-07 19:08 | 42.35768 | -70.99826 | 28 ft | 21 kts | 135° |
| 2026-05-07 19:09 | 42.35662 | -70.99683 | 26 ft | 22 kts | 135° |
| 2026-05-07 19:09 | 42.35556 | -70.99540 | 24 ft | 22 kts | 135° |
| 2026-05-07 19:09 | 42.35489 | -70.99380 | 24 ft | 17 kts | 82° |
| 2026-05-07 19:09 | 42.35547 | -70.99280 | 27 ft | 12 kts | 349° |
| 2026-05-07 19:10 | 42.35580 | -70.99316 | 24 ft | 0 kts | 315° |
| 2026-05-07 19:11 | 42.35688 | -70.99460 | 25 ft | 57 kts | 315° |
| 2026-05-07 19:11 | 42.36140 | -71.00063 | 28 ft | 124 kts | 315° |
| 2026-05-07 19:11 | 42.36886 | -71.01052 | 127 ft | 169 kts | 314° |
| 2026-05-07 19:11 | 42.37716 | -71.02150 | 1070 ft | 162 kts | 315° |
| 2026-05-07 19:12 | 42.38499 | -71.03176 | 2021 ft | 153 kts | 309° |
| 2026-05-07 19:12 | 42.39076 | -71.04428 | 2463 ft | 162 kts | 298° |
| 2026-05-07 19:12 | 42.39595 | -71.05754 | 3089 ft | 155 kts | 295° |
| 2026-05-07 19:12 | 42.40101 | -71.07135 | 3605 ft | 179 kts | 298° |
| 2026-05-07 19:13 | 42.40577 | -71.08814 | 3888 ft | 206 kts | 276° |
| 2026-05-07 19:13 | 42.40430 | -71.10814 | 4338 ft | 221 kts | 258° |
| 2026-05-07 19:13 | 42.39788 | -71.12755 | 4857 ft | 237 kts | 241° |
| 2026-05-07 19:13 | 42.38807 | -71.14700 | 5315 ft | 258 kts | 237° |
| 2026-05-07 19:14 | 42.37748 | -71.16684 | 6198 ft | 262 kts | 237° |
| 2026-05-07 19:14 | 42.36569 | -71.18558 | 7195 ft | 262 kts | 222° |
| 2026-05-07 19:14 | 42.34915 | -71.19630 | 8244 ft | 270 kts | 199° |
| 2026-05-07 19:14 | 42.32993 | -71.19661 | 9119 ft | 288 kts | 175° |
| 2026-05-07 19:15 | 42.31042 | -71.18816 | 9920 ft | 299 kts | 169° |
| 2026-05-07 19:15 | 42.29072 | -71.17815 | 10500 ft | 311 kts | 169° |
| 2026-05-07 19:15 | 42.26965 | -71.16759 | 10693 ft | 335 kts | 168° |
| 2026-05-07 19:15 | 42.24777 | -71.15295 | 10846 ft | 374 kts | 150° |
| 2026-05-07 19:16 | 42.22731 | -71.12927 | 11039 ft | 399 kts | 145° |
| 2026-05-07 19:16 | 42.20623 | -71.10350 | 11260 ft | 416 kts | 145° |
| 2026-05-07 19:16 | 42.18441 | -71.07730 | 11759 ft | 423 kts | 146° |
| 2026-05-07 19:16 | 42.16250 | -71.05150 | 12459 ft | 423 kts | 147° |
| 2026-05-07 19:17 | 42.14005 | -71.02625 | 13310 ft | 417 kts | 152° |
| 2026-05-07 19:17 | 42.11661 | -71.00353 | 14008 ft | 414 kts | 155° |
| 2026-05-07 19:17 | 42.09256 | -70.98180 | 14586 ft | 417 kts | 156° |
| 2026-05-07 19:17 | 42.06828 | -70.96016 | 15159 ft | 420 kts | 155° |
| 2026-05-07 19:18 | 42.04392 | -70.93818 | 15730 ft | 423 kts | 155° |
| 2026-05-07 19:18 | 42.01951 | -70.91580 | 16312 ft | 426 kts | 155° |
| 2026-05-07 19:18 | 41.99497 | -70.89309 | 16881 ft | 429 kts | 155° |
| 2026-05-07 19:18 | 41.97040 | -70.87021 | 17409 ft | 432 kts | 155° |
| 2026-05-07 19:19 | 41.94563 | -70.84714 | 17935 ft | 435 kts | 154° |
| 2026-05-07 19:19 | 41.92070 | -70.82394 | 18384 ft | 438 kts | 155° |
| 2026-05-07 19:19 | 41.89552 | -70.80059 | 18813 ft | 440 kts | 155° |
| 2026-05-07 19:19 | 41.86953 | -70.77968 | 19215 ft | 427 kts | 169° |
| 2026-05-07 19:20 | 41.84161 | -70.77086 | 19680 ft | 402 kts | 187° |
| 2026-05-07 19:20 | 41.81433 | -70.77272 | 20222 ft | 385 kts | 199° |
| 2026-05-07 19:20 | 41.78909 | -70.78207 | 20762 ft | 370 kts | 211° |
| 2026-05-07 19:20 | 41.76671 | -70.79744 | 21272 ft | 363 kts | 217° |
| 2026-05-07 19:21 | 41.74482 | -70.81419 | 21772 ft | 362 kts | 217° |
| 2026-05-07 19:21 | 41.72300 | -70.83107 | 22229 ft | 362 kts | 218° |
| 2026-05-07 19:21 | 41.70107 | -70.84790 | 22668 ft | 363 kts | 217° |
| 2026-05-07 19:21 | 41.67906 | -70.86461 | 23087 ft | 363 kts | 217° |
| 2026-05-07 19:22 | 41.65707 | -70.88117 | 23486 ft | 364 kts | 217° |
| 2026-05-07 19:22 | 41.63489 | -70.89778 | 23807 ft | 364 kts | 217° |
| 2026-05-07 19:22 | 41.61271 | -70.91436 | 24093 ft | 366 kts | 217° |
| 2026-05-07 19:22 | 41.59072 | -70.93077 | 24370 ft | 367 kts | 218° |
| 2026-05-07 19:23 | 41.56972 | -70.94962 | 24644 ft | 361 kts | 225° |
| 2026-05-07 19:23 | 41.55080 | -70.97157 | 24938 ft | 359 kts | 228° |
| 2026-05-07 19:23 | 41.53311 | -70.99499 | 25206 ft | 358 kts | 231° |
| 2026-05-07 19:23 | 41.51743 | -71.02072 | 25475 ft | 356 kts | 237° |
| 2026-05-07 19:24 | 41.50362 | -71.04816 | 25746 ft | 357 kts | 238° |
| 2026-05-07 19:24 | 41.48986 | -71.07583 | 25995 ft | 358 kts | 238° |
| 2026-05-07 19:24 | 41.47609 | -71.10356 | 26231 ft | 359 kts | 238° |
| 2026-05-07 19:24 | 41.46227 | -71.13128 | 26444 ft | 359 kts | 238° |
| 2026-05-07 19:25 | 41.44839 | -71.15904 | 26648 ft | 360 kts | 238° |
| 2026-05-07 19:25 | 41.43449 | -71.18675 | 26862 ft | 359 kts | 238° |
| 2026-05-07 19:25 | 41.42058 | -71.21445 | 27135 ft | 358 kts | 238° |
| 2026-05-07 19:25 | 41.40678 | -71.24188 | 27435 ft | 356 kts | 238° |
| 2026-05-07 19:26 | 41.39302 | -71.26923 | 27709 ft | 355 kts | 238° |
| 2026-05-07 19:26 | 41.37946 | -71.29614 | 27972 ft | 354 kts | 238° |
| 2026-05-07 19:26 | 41.36576 | -71.32329 | 28252 ft | 352 kts | 238° |
| 2026-05-07 19:26 | 41.35210 | -71.35033 | 28555 ft | 351 kts | 238° |
| 2026-05-07 19:27 | 41.33846 | -71.37733 | 28852 ft | 350 kts | 238° |
| 2026-05-07 19:27 | 41.32493 | -71.40408 | 29153 ft | 348 kts | 238° |
| 2026-05-07 19:27 | 41.31144 | -71.43075 | 29451 ft | 347 kts | 238° |
| 2026-05-07 19:27 | 41.29797 | -71.45737 | 29755 ft | 345 kts | 238° |
| 2026-05-07 19:28 | 41.28909 | -71.47490 | 29940 ft | 345 kts | 238° |
| 2026-05-07 19:28 | 41.27570 | -71.50131 | 30185 ft | 344 kts | 238° |
| 2026-05-07 19:28 | 41.25801 | -71.53620 | 30482 ft | 343 kts | 238° |
| 2026-05-07 19:28 | 41.24468 | -71.56245 | 30727 ft | 342 kts | 238° |
| 2026-05-07 19:29 | 41.23140 | -71.58858 | 30979 ft | 341 kts | 238° |
| 2026-05-07 19:29 | 41.22245 | -71.60619 | 31129 ft | 340 kts | 238° |
| 2026-05-07 19:29 | 41.20921 | -71.63221 | 31345 ft | 340 kts | 238° |
| 2026-05-07 19:29 | 41.19612 | -71.65792 | 31577 ft | 339 kts | 238° |
| 2026-05-07 19:30 | 41.18293 | -71.68381 | 31807 ft | 338 kts | 238° |
| 2026-05-07 19:30 | 41.16976 | -71.70964 | 32033 ft | 337 kts | 238° |
| 2026-05-07 19:30 | 41.15662 | -71.73537 | 32259 ft | 337 kts | 238° |
| 2026-05-07 19:30 | 41.14348 | -71.76107 | 32476 ft | 336 kts | 238° |
| 2026-05-07 19:31 | 41.13040 | -71.78676 | 32712 ft | 335 kts | 239° |
| 2026-05-07 19:31 | 41.11741 | -71.81234 | 32932 ft | 334 kts | 239° |
| 2026-05-07 19:31 | 41.10440 | -71.83793 | 33144 ft | 334 kts | 239° |
| 2026-05-07 19:31 | 41.09144 | -71.86341 | 33367 ft | 333 kts | 239° |
| 2026-05-07 19:32 | 41.07851 | -71.88883 | 33575 ft | 332 kts | 239° |
| 2026-05-07 19:32 | 41.06557 | -71.91422 | 33787 ft | 332 kts | 239° |
| 2026-05-07 19:32 | 41.05266 | -71.93951 | 33977 ft | 331 kts | 239° |
| 2026-05-07 19:32 | 41.03987 | -71.96486 | 34131 ft | 331 kts | 240° |
| 2026-05-07 19:33 | 41.02856 | -71.99137 | 34269 ft | 330 kts | 245° |
| 2026-05-07 19:33 | 41.01881 | -72.01887 | 34450 ft | 329 kts | 245° |
| 2026-05-07 19:33 | 41.00918 | -72.04641 | 34616 ft | 329 kts | 245° |
| 2026-05-07 19:33 | 40.99968 | -72.07361 | 34769 ft | 329 kts | 245° |
| 2026-05-07 19:34 | 40.99006 | -72.10105 | 34900 ft | 329 kts | 245° |
| 2026-05-07 19:34 | 40.98038 | -72.12856 | 35047 ft | 329 kts | 245° |
| 2026-05-07 19:34 | 40.97071 | -72.15599 | 35203 ft | 329 kts | 245° |
| 2026-05-07 19:34 | 40.96102 | -72.18343 | 35359 ft | 329 kts | 245° |
| 2026-05-07 19:35 | 40.95132 | -72.21084 | 35500 ft | 329 kts | 245° |
| 2026-05-07 19:35 | 40.94161 | -72.23824 | 35641 ft | 329 kts | 245° |
| 2026-05-07 19:35 | 40.93193 | -72.26553 | 35782 ft | 328 kts | 245° |
| 2026-05-07 19:35 | 40.92099 | -72.29173 | 35823 ft | 328 kts | 240° |
| 2026-05-07 19:36 | 40.90913 | -72.31483 | 35650 ft | 0 kts | 241° |